sensor_id;sensor_type;location;lat;lon;timestamp;P1;durP1;ratioP1;P2;durP2;ratioP2
73154;SDS011;61364;52.418;7.382;2022-08-19T00:01:09;6.16;;;6.16;;
73154;SDS011;61364;52.418;7.382;2022-08-19T00:03:35;6.28;;;6.28;;
73154;SDS011;61364;52.418;7.382;2022-08-19T00:06:00;6.39;;;6.39;;
73154;SDS011;61364;52.418;7.382;2022-08-19T00:08:26;5.85;;;5.85;;
73154;SDS011;61364;52.418;7.382;2022-08-19T00:10:51;6.45;;;6.45;;
73154;SDS011;61364;52.418;7.382;2022-08-19T00:13:17;6.19;;;6.19;;
73154;SDS011;61364;52.418;7.382;2022-08-19T00:15:44;6.61;;;6.61;;
73154;SDS011;61364;52.418;7.382;2022-08-19T00:18:10;6.37;;;6.37;;
73154;SDS011;61364;52.418;7.382;2022-08-19T00:20:35;6.69;;;6.69;;
73154;SDS011;61364;52.418;7.382;2022-08-19T00:23:03;6.63;;;6.63;;
73154;SDS011;61364;52.418;7.382;2022-08-19T00:25:28;6.69;;;6.69;;
73154;SDS011;61364;52.418;7.382;2022-08-19T00:27:54;6.40;;;6.40;;
73154;SDS011;61364;52.418;7.382;2022-08-19T00:30:19;6.80;;;6.80;;
73154;SDS011;61364;52.418;7.382;2022-08-19T00:32:45;6.55;;;6.55;;
73154;SDS011;61364;52.418;7.382;2022-08-19T00:35:10;6.73;;;6.73;;
73154;SDS011;61364;52.418;7.382;2022-08-19T00:37:36;7.55;;;7.55;;
73154;SDS011;61364;52.418;7.382;2022-08-19T00:40:03;7.88;;;7.88;;
73154;SDS011;61364;52.418;7.382;2022-08-19T00:42:30;7.95;;;7.95;;
73154;SDS011;61364;52.418;7.382;2022-08-19T00:44:55;7.34;;;7.34;;
73154;SDS011;61364;52.418;7.382;2022-08-19T00:47:21;7.58;;;7.56;;
73154;SDS011;61364;52.418;7.382;2022-08-19T00:49:50;7.25;;;7.25;;
73154;SDS011;61364;52.418;7.382;2022-08-19T00:52:36;7.15;;;7.15;;
73154;SDS011;61364;52.418;7.382;2022-08-19T00:55:05;7.39;;;7.39;;
73154;SDS011;61364;52.418;7.382;2022-08-19T00:57:36;7.16;;;7.16;;
73154;SDS011;61364;52.418;7.382;2022-08-19T01:00:05;7.07;;;7.07;;
73154;SDS011;61364;52.418;7.382;2022-08-19T01:02:32;6.98;;;6.98;;
73154;SDS011;61364;52.418;7.382;2022-08-19T01:04:58;7.13;;;7.13;;
73154;SDS011;61364;52.418;7.382;2022-08-19T01:07:25;7.36;;;7.33;;
73154;SDS011;61364;52.418;7.382;2022-08-19T01:09:51;7.78;;;7.57;;
73154;SDS011;61364;52.418;7.382;2022-08-19T01:12:17;7.24;;;7.20;;
73154;SDS011;61364;52.418;7.382;2022-08-19T01:14:43;7.22;;;7.22;;
73154;SDS011;61364;52.418;7.382;2022-08-19T01:17:10;7.13;;;7.13;;
73154;SDS011;61364;52.418;7.382;2022-08-19T01:19:37;7.14;;;7.14;;
73154;SDS011;61364;52.418;7.382;2022-08-19T01:22:07;7.16;;;7.16;;
73154;SDS011;61364;52.418;7.382;2022-08-19T01:24:37;7.06;;;7.06;;
73154;SDS011;61364;52.418;7.382;2022-08-19T01:27:03;6.83;;;6.83;;
73154;SDS011;61364;52.418;7.382;2022-08-19T01:29:29;6.40;;;6.40;;
73154;SDS011;61364;52.418;7.382;2022-08-19T01:31:55;6.54;;;6.54;;
73154;SDS011;61364;52.418;7.382;2022-08-19T01:34:21;7.35;;;7.35;;
73154;SDS011;61364;52.418;7.382;2022-08-19T01:36:47;6.86;;;6.86;;
73154;SDS011;61364;52.418;7.382;2022-08-19T01:39:18;6.89;;;6.89;;
73154;SDS011;61364;52.418;7.382;2022-08-19T01:41:46;6.82;;;6.82;;
73154;SDS011;61364;52.418;7.382;2022-08-19T01:44:11;6.75;;;6.75;;
73154;SDS011;61364;52.418;7.382;2022-08-19T01:46:37;6.68;;;6.68;;
73154;SDS011;61364;52.418;7.382;2022-08-19T01:49:03;6.51;;;6.51;;
73154;SDS011;61364;52.418;7.382;2022-08-19T01:51:29;7.10;;;7.10;;
73154;SDS011;61364;52.418;7.382;2022-08-19T01:53:56;7.02;;;7.02;;
73154;SDS011;61364;52.418;7.382;2022-08-19T01:56:22;7.32;;;7.32;;
73154;SDS011;61364;52.418;7.382;2022-08-19T01:58:59;7.30;;;7.30;;
73154;SDS011;61364;52.418;7.382;2022-08-19T02:01:27;7.14;;;7.14;;
73154;SDS011;61364;52.418;7.382;2022-08-19T02:03:57;6.87;;;6.87;;
73154;SDS011;61364;52.418;7.382;2022-08-19T02:06:23;7.09;;;7.09;;
73154;SDS011;61364;52.418;7.382;2022-08-19T02:08:49;7.45;;;7.45;;
73154;SDS011;61364;52.418;7.382;2022-08-19T02:11:23;7.13;;;7.13;;
73154;SDS011;61364;52.418;7.382;2022-08-19T02:13:52;7.54;;;7.54;;
73154;SDS011;61364;52.418;7.382;2022-08-19T02:16:17;7.41;;;7.41;;
73154;SDS011;61364;52.418;7.382;2022-08-19T02:18:43;6.96;;;6.96;;
73154;SDS011;61364;52.418;7.382;2022-08-19T02:21:09;7.16;;;7.16;;
73154;SDS011;61364;52.418;7.382;2022-08-19T02:23:36;7.13;;;7.13;;
73154;SDS011;61364;52.418;7.382;2022-08-19T02:26:02;7.57;;;7.56;;
73154;SDS011;61364;52.418;7.382;2022-08-19T02:28:27;6.86;;;6.86;;
73154;SDS011;61364;52.418;7.382;2022-08-19T02:30:53;7.03;;;7.03;;
73154;SDS011;61364;52.418;7.382;2022-08-19T02:33:18;6.96;;;6.96;;
73154;SDS011;61364;52.418;7.382;2022-08-19T02:35:44;6.81;;;6.80;;
73154;SDS011;61364;52.418;7.382;2022-08-19T02:38:11;6.90;;;6.90;;
73154;SDS011;61364;52.418;7.382;2022-08-19T02:40:59;7.27;;;7.27;;
73154;SDS011;61364;52.418;7.382;2022-08-19T02:43:26;6.81;;;6.81;;
73154;SDS011;61364;52.418;7.382;2022-08-19T02:45:53;6.57;;;6.57;;
73154;SDS011;61364;52.418;7.382;2022-08-19T02:48:20;6.52;;;6.52;;
73154;SDS011;61364;52.418;7.382;2022-08-19T02:50:46;6.65;;;6.65;;
73154;SDS011;61364;52.418;7.382;2022-08-19T02:53:14;7.13;;;7.13;;
73154;SDS011;61364;52.418;7.382;2022-08-19T02:55:46;7.02;;;7.02;;
73154;SDS011;61364;52.418;7.382;2022-08-19T02:58:13;7.29;;;7.29;;
73154;SDS011;61364;52.418;7.382;2022-08-19T03:00:46;6.67;;;6.67;;
73154;SDS011;61364;52.418;7.382;2022-08-19T03:03:12;7.02;;;7.02;;
73154;SDS011;61364;52.418;7.382;2022-08-19T03:05:38;6.90;;;6.90;;
73154;SDS011;61364;52.418;7.382;2022-08-19T03:08:05;7.16;;;7.16;;
73154;SDS011;61364;52.418;7.382;2022-08-19T03:10:31;7.33;;;7.33;;
73154;SDS011;61364;52.418;7.382;2022-08-19T03:12:57;7.00;;;7.00;;
73154;SDS011;61364;52.418;7.382;2022-08-19T03:15:23;6.61;;;6.61;;
73154;SDS011;61364;52.418;7.382;2022-08-19T03:17:48;6.73;;;6.73;;
73154;SDS011;61364;52.418;7.382;2022-08-19T03:20:14;6.54;;;6.54;;
73154;SDS011;61364;52.418;7.382;2022-08-19T03:22:40;6.17;;;6.17;;
73154;SDS011;61364;52.418;7.382;2022-08-19T03:25:05;6.84;;;6.84;;
73154;SDS011;61364;52.418;7.382;2022-08-19T03:27:31;6.51;;;6.51;;
73154;SDS011;61364;52.418;7.382;2022-08-19T03:29:56;6.11;;;6.11;;
73154;SDS011;61364;52.418;7.382;2022-08-19T03:32:22;6.37;;;6.37;;
73154;SDS011;61364;52.418;7.382;2022-08-19T03:34:47;5.99;;;5.99;;
73154;SDS011;61364;52.418;7.382;2022-08-19T03:37:13;7.43;;;7.43;;
73154;SDS011;61364;52.418;7.382;2022-08-19T03:39:39;8.14;;;8.05;;
73154;SDS011;61364;52.418;7.382;2022-08-19T03:42:06;7.78;;;7.78;;
73154;SDS011;61364;52.418;7.382;2022-08-19T03:44:31;7.89;;;7.89;;
73154;SDS011;61364;52.418;7.382;2022-08-19T03:47:02;7.08;;;7.08;;
73154;SDS011;61364;52.418;7.382;2022-08-19T03:49:30;6.95;;;6.95;;
73154;SDS011;61364;52.418;7.382;2022-08-19T03:51:57;7.49;;;7.46;;
73154;SDS011;61364;52.418;7.382;2022-08-19T03:54:25;7.84;;;7.84;;
73154;SDS011;61364;52.418;7.382;2022-08-19T03:56:52;7.79;;;7.79;;
73154;SDS011;61364;52.418;7.382;2022-08-19T03:59:26;7.84;;;7.83;;
73154;SDS011;61364;52.418;7.382;2022-08-19T04:01:53;7.61;;;7.61;;
73154;SDS011;61364;52.418;7.382;2022-08-19T04:04:19;7.34;;;7.34;;
73154;SDS011;61364;52.418;7.382;2022-08-19T04:06:45;7.21;;;7.21;;
73154;SDS011;61364;52.418;7.382;2022-08-19T04:09:12;6.91;;;6.91;;
73154;SDS011;61364;52.418;7.382;2022-08-19T04:11:42;7.06;;;7.06;;
73154;SDS011;61364;52.418;7.382;2022-08-19T04:14:10;6.68;;;6.68;;
73154;SDS011;61364;52.418;7.382;2022-08-19T04:16:36;6.48;;;6.47;;
73154;SDS011;61364;52.418;7.382;2022-08-19T04:19:03;6.14;;;6.10;;
73154;SDS011;61364;52.418;7.382;2022-08-19T04:21:30;6.72;;;6.72;;
73154;SDS011;61364;52.418;7.382;2022-08-19T04:23:56;6.21;;;6.21;;
73154;SDS011;61364;52.418;7.382;2022-08-19T04:26:24;6.40;;;6.40;;
73154;SDS011;61364;52.418;7.382;2022-08-19T04:28:50;6.27;;;6.27;;
73154;SDS011;61364;52.418;7.382;2022-08-19T04:31:18;6.24;;;6.24;;
73154;SDS011;61364;52.418;7.382;2022-08-19T04:33:44;6.47;;;6.47;;
73154;SDS011;61364;52.418;7.382;2022-08-19T04:36:17;5.91;;;5.91;;
73154;SDS011;61364;52.418;7.382;2022-08-19T04:38:46;6.31;;;6.31;;
73154;SDS011;61364;52.418;7.382;2022-08-19T04:41:11;6.12;;;6.12;;
73154;SDS011;61364;52.418;7.382;2022-08-19T04:43:55;5.54;;;5.54;;
73154;SDS011;61364;52.418;7.382;2022-08-19T04:46:21;6.02;;;6.02;;
73154;SDS011;61364;52.418;7.382;2022-08-19T04:48:47;5.88;;;5.88;;
73154;SDS011;61364;52.418;7.382;2022-08-19T04:51:13;6.46;;;6.43;;
73154;SDS011;61364;52.418;7.382;2022-08-19T04:53:39;6.24;;;6.24;;
73154;SDS011;61364;52.418;7.382;2022-08-19T04:56:09;6.49;;;6.49;;
73154;SDS011;61364;52.418;7.382;2022-08-19T04:58:36;7.34;;;7.23;;
73154;SDS011;61364;52.418;7.382;2022-08-19T05:01:03;7.58;;;7.50;;
73154;SDS011;61364;52.418;7.382;2022-08-19T05:03:29;8.02;;;8.02;;
73154;SDS011;61364;52.418;7.382;2022-08-19T05:06:03;7.72;;;7.72;;
73154;SDS011;61364;52.418;7.382;2022-08-19T05:08:31;8.28;;;8.22;;
73154;SDS011;61364;52.418;7.382;2022-08-19T05:10:57;7.71;;;7.71;;
73154;SDS011;61364;52.418;7.382;2022-08-19T05:13:23;7.86;;;7.85;;
73154;SDS011;61364;52.418;7.382;2022-08-19T05:15:55;7.48;;;7.45;;
73154;SDS011;61364;52.418;7.382;2022-08-19T05:18:21;7.64;;;7.63;;
73154;SDS011;61364;52.418;7.382;2022-08-19T05:21:09;8.33;;;8.25;;
73154;SDS011;61364;52.418;7.382;2022-08-19T05:23:55;8.45;;;8.37;;
73154;SDS011;61364;52.418;7.382;2022-08-19T05:26:20;8.87;;;8.86;;
73154;SDS011;61364;52.418;7.382;2022-08-19T05:28:46;7.91;;;7.90;;
73154;SDS011;61364;52.418;7.382;2022-08-19T05:31:12;8.10;;;8.10;;
73154;SDS011;61364;52.418;7.382;2022-08-19T05:33:38;7.99;;;7.93;;
73154;SDS011;61364;52.418;7.382;2022-08-19T05:36:05;8.35;;;8.33;;
73154;SDS011;61364;52.418;7.382;2022-08-19T05:38:35;8.65;;;8.65;;
73154;SDS011;61364;52.418;7.382;2022-08-19T05:41:10;8.60;;;8.60;;
73154;SDS011;61364;52.418;7.382;2022-08-19T05:43:36;8.81;;;8.81;;
73154;SDS011;61364;52.418;7.382;2022-08-19T05:46:03;9.97;;;9.77;;
73154;SDS011;61364;52.418;7.382;2022-08-19T05:48:32;10.23;;;10.23;;
73154;SDS011;61364;52.418;7.382;2022-08-19T05:50:57;10.26;;;10.22;;
73154;SDS011;61364;52.418;7.382;2022-08-19T05:53:25;9.89;;;9.68;;
73154;SDS011;61364;52.418;7.382;2022-08-19T05:55:50;10.59;;;10.28;;
73154;SDS011;61364;52.418;7.382;2022-08-19T05:58:16;10.13;;;10.02;;
73154;SDS011;61364;52.418;7.382;2022-08-19T06:00:43;9.83;;;9.83;;
73154;SDS011;61364;52.418;7.382;2022-08-19T06:03:09;9.71;;;9.68;;
73154;SDS011;61364;52.418;7.382;2022-08-19T06:05:35;11.36;;;11.14;;
73154;SDS011;61364;52.418;7.382;2022-08-19T06:08:00;10.45;;;10.38;;
73154;SDS011;61364;52.418;7.382;2022-08-19T06:10:27;11.22;;;11.01;;
73154;SDS011;61364;52.418;7.382;2022-08-19T06:12:53;11.99;;;11.65;;
73154;SDS011;61364;52.418;7.382;2022-08-19T06:15:19;13.17;;;13.16;;
73154;SDS011;61364;52.418;7.382;2022-08-19T06:17:48;12.76;;;12.58;;
73154;SDS011;61364;52.418;7.382;2022-08-19T06:20:14;12.79;;;12.73;;
73154;SDS011;61364;52.418;7.382;2022-08-19T06:22:49;12.64;;;12.52;;
73154;SDS011;61364;52.418;7.382;2022-08-19T06:25:16;14.45;;;13.89;;
73154;SDS011;61364;52.418;7.382;2022-08-19T06:27:42;12.83;;;12.60;;
73154;SDS011;61364;52.418;7.382;2022-08-19T06:30:09;12.86;;;12.85;;
73154;SDS011;61364;52.418;7.382;2022-08-19T06:32:35;13.35;;;13.26;;
73154;SDS011;61364;52.418;7.382;2022-08-19T06:35:00;13.14;;;13.11;;
73154;SDS011;61364;52.418;7.382;2022-08-19T06:37:26;13.70;;;13.24;;
73154;SDS011;61364;52.418;7.382;2022-08-19T06:39:51;13.45;;;12.97;;
73154;SDS011;61364;52.418;7.382;2022-08-19T06:42:17;13.64;;;13.54;;
73154;SDS011;61364;52.418;7.382;2022-08-19T06:44:44;13.88;;;13.72;;
73154;SDS011;61364;52.418;7.382;2022-08-19T06:47:15;13.64;;;13.59;;
73154;SDS011;61364;52.418;7.382;2022-08-19T06:49:42;13.48;;;13.38;;
73154;SDS011;61364;52.418;7.382;2022-08-19T06:52:07;13.01;;;12.98;;
73154;SDS011;61364;52.418;7.382;2022-08-19T06:54:33;13.15;;;13.09;;
73154;SDS011;61364;52.418;7.382;2022-08-19T06:56:59;13.44;;;13.23;;
73154;SDS011;61364;52.418;7.382;2022-08-19T06:59:29;13.20;;;12.97;;
73154;SDS011;61364;52.418;7.382;2022-08-19T07:01:57;12.22;;;12.20;;
73154;SDS011;61364;52.418;7.382;2022-08-19T07:04:25;12.50;;;12.45;;
73154;SDS011;61364;52.418;7.382;2022-08-19T07:06:59;13.49;;;13.17;;
73154;SDS011;61364;52.418;7.382;2022-08-19T07:09:25;12.55;;;12.24;;
73154;SDS011;61364;52.418;7.382;2022-08-19T07:11:52;12.92;;;12.68;;
73154;SDS011;61364;52.418;7.382;2022-08-19T07:14:19;12.30;;;12.23;;
73154;SDS011;61364;52.418;7.382;2022-08-19T07:16:46;11.97;;;11.83;;
73154;SDS011;61364;52.418;7.382;2022-08-19T07:19:13;12.03;;;11.98;;
73154;SDS011;61364;52.418;7.382;2022-08-19T07:21:40;11.80;;;11.80;;
73154;SDS011;61364;52.418;7.382;2022-08-19T07:24:06;12.18;;;12.18;;
73154;SDS011;61364;52.418;7.382;2022-08-19T07:26:40;12.07;;;12.00;;
73154;SDS011;61364;52.418;7.382;2022-08-19T07:29:06;12.41;;;12.40;;
73154;SDS011;61364;52.418;7.382;2022-08-19T07:31:32;12.03;;;12.03;;
73154;SDS011;61364;52.418;7.382;2022-08-19T07:34:01;11.92;;;11.92;;
73154;SDS011;61364;52.418;7.382;2022-08-19T07:36:28;11.97;;;11.97;;
73154;SDS011;61364;52.418;7.382;2022-08-19T07:38:58;12.20;;;12.20;;
73154;SDS011;61364;52.418;7.382;2022-08-19T07:41:25;11.97;;;11.97;;
73154;SDS011;61364;52.418;7.382;2022-08-19T07:43:53;11.40;;;11.40;;
73154;SDS011;61364;52.418;7.382;2022-08-19T07:46:18;10.27;;;10.27;;
73154;SDS011;61364;52.418;7.382;2022-08-19T07:48:45;9.92;;;9.92;;
73154;SDS011;61364;52.418;7.382;2022-08-19T07:51:13;9.11;;;9.11;;
73154;SDS011;61364;52.418;7.382;2022-08-19T07:53:39;8.68;;;8.68;;
73154;SDS011;61364;52.418;7.382;2022-08-19T07:56:05;8.44;;;8.44;;
73154;SDS011;61364;52.418;7.382;2022-08-19T07:58:34;8.17;;;8.17;;
73154;SDS011;61364;52.418;7.382;2022-08-19T08:01:02;8.32;;;8.32;;
73154;SDS011;61364;52.418;7.382;2022-08-19T08:03:28;8.13;;;8.13;;
73154;SDS011;61364;52.418;7.382;2022-08-19T08:06:13;7.52;;;7.52;;
73154;SDS011;61364;52.418;7.382;2022-08-19T08:08:58;6.96;;;6.96;;
73154;SDS011;61364;52.418;7.382;2022-08-19T08:11:40;7.17;;;7.17;;
73154;SDS011;61364;52.418;7.382;2022-08-19T08:14:07;6.64;;;6.64;;
73154;SDS011;61364;52.418;7.382;2022-08-19T08:16:35;6.61;;;6.61;;
73154;SDS011;61364;52.418;7.382;2022-08-19T08:19:03;6.33;;;6.33;;
73154;SDS011;61364;52.418;7.382;2022-08-19T08:21:28;6.21;;;6.21;;
73154;SDS011;61364;52.418;7.382;2022-08-19T08:23:54;6.07;;;6.07;;
73154;SDS011;61364;52.418;7.382;2022-08-19T08:26:20;6.63;;;6.63;;
73154;SDS011;61364;52.418;7.382;2022-08-19T08:28:46;6.15;;;6.15;;
73154;SDS011;61364;52.418;7.382;2022-08-19T08:31:13;6.20;;;6.20;;
73154;SDS011;61364;52.418;7.382;2022-08-19T08:33:39;6.32;;;6.32;;
73154;SDS011;61364;52.418;7.382;2022-08-19T08:36:07;6.09;;;6.09;;
73154;SDS011;61364;52.418;7.382;2022-08-19T08:38:33;5.41;;;5.41;;
73154;SDS011;61364;52.418;7.382;2022-08-19T08:41:01;5.28;;;5.28;;
73154;SDS011;61364;52.418;7.382;2022-08-19T08:43:35;5.39;;;5.39;;
73154;SDS011;61364;52.418;7.382;2022-08-19T08:46:03;5.48;;;5.48;;
73154;SDS011;61364;52.418;7.382;2022-08-19T08:48:38;5.21;;;5.21;;
73154;SDS011;61364;52.418;7.382;2022-08-19T08:51:09;5.56;;;5.56;;
73154;SDS011;61364;52.418;7.382;2022-08-19T08:53:37;6.50;;;6.50;;
73154;SDS011;61364;52.418;7.382;2022-08-19T08:56:04;6.80;;;6.80;;
73154;SDS011;61364;52.418;7.382;2022-08-19T08:58:36;6.15;;;6.15;;
73154;SDS011;61364;52.418;7.382;2022-08-19T09:01:09;6.77;;;6.77;;
73154;SDS011;61364;52.418;7.382;2022-08-19T09:03:36;7.19;;;7.19;;
73154;SDS011;61364;52.418;7.382;2022-08-19T09:06:04;7.66;;;7.66;;
73154;SDS011;61364;52.418;7.382;2022-08-19T09:11:00;7.31;;;7.31;;
73154;SDS011;61364;52.418;7.382;2022-08-19T09:13:42;7.29;;;7.29;;
73154;SDS011;61364;52.418;7.382;2022-08-19T09:16:17;6.94;;;6.94;;
73154;SDS011;61364;52.418;7.382;2022-08-19T09:18:55;6.38;;;6.38;;
73154;SDS011;61364;52.418;7.382;2022-08-19T09:21:23;6.11;;;6.11;;
73154;SDS011;61364;52.418;7.382;2022-08-19T09:23:51;5.67;;;5.67;;
73154;SDS011;61364;52.418;7.382;2022-08-19T09:26:17;5.46;;;5.46;;
73154;SDS011;61364;52.418;7.382;2022-08-19T09:28:45;5.67;;;5.67;;
73154;SDS011;61364;52.418;7.382;2022-08-19T09:31:28;5.48;;;5.48;;
73154;SDS011;61364;52.418;7.382;2022-08-19T09:33:55;5.34;;;5.34;;
73154;SDS011;61364;52.418;7.382;2022-08-19T09:36:24;6.09;;;6.09;;
73154;SDS011;61364;52.418;7.382;2022-08-19T09:38:51;5.23;;;5.23;;
73154;SDS011;61364;52.418;7.382;2022-08-19T09:41:18;5.71;;;5.71;;
73154;SDS011;61364;52.418;7.382;2022-08-19T09:43:45;6.52;;;6.52;;
73154;SDS011;61364;52.418;7.382;2022-08-19T09:46:12;5.79;;;5.79;;
73154;SDS011;61364;52.418;7.382;2022-08-19T09:48:39;5.28;;;5.28;;
73154;SDS011;61364;52.418;7.382;2022-08-19T09:51:07;4.88;;;4.88;;
73154;SDS011;61364;52.418;7.382;2022-08-19T09:53:36;5.28;;;5.28;;
73154;SDS011;61364;52.418;7.382;2022-08-19T09:56:03;4.98;;;4.98;;
73154;SDS011;61364;52.418;7.382;2022-08-19T09:58:29;5.46;;;5.46;;
73154;SDS011;61364;52.418;7.382;2022-08-19T10:00:56;5.21;;;5.21;;
73154;SDS011;61364;52.418;7.382;2022-08-19T10:03:22;4.97;;;4.97;;
73154;SDS011;61364;52.418;7.382;2022-08-19T10:05:48;4.86;;;4.86;;
73154;SDS011;61364;52.418;7.382;2022-08-19T10:08:34;5.15;;;5.15;;
73154;SDS011;61364;52.418;7.382;2022-08-19T10:11:00;4.59;;;4.59;;
73154;SDS011;61364;52.418;7.382;2022-08-19T10:13:27;4.86;;;4.86;;
73154;SDS011;61364;52.418;7.382;2022-08-19T10:15:55;4.85;;;4.85;;
73154;SDS011;61364;52.418;7.382;2022-08-19T10:18:22;4.86;;;4.86;;
73154;SDS011;61364;52.418;7.382;2022-08-19T10:20:48;4.75;;;4.75;;
73154;SDS011;61364;52.418;7.382;2022-08-19T10:23:16;4.57;;;4.57;;
73154;SDS011;61364;52.418;7.382;2022-08-19T10:25:42;4.63;;;4.63;;
73154;SDS011;61364;52.418;7.382;2022-08-19T10:28:08;4.04;;;4.04;;
73154;SDS011;61364;52.418;7.382;2022-08-19T10:30:37;4.21;;;4.21;;
73154;SDS011;61364;52.418;7.382;2022-08-19T10:33:04;4.00;;;4.00;;
73154;SDS011;61364;52.418;7.382;2022-08-19T10:35:30;4.21;;;4.21;;
73154;SDS011;61364;52.418;7.382;2022-08-19T10:37:55;3.72;;;3.72;;
73154;SDS011;61364;52.418;7.382;2022-08-19T10:40:24;4.11;;;4.11;;
73154;SDS011;61364;52.418;7.382;2022-08-19T10:42:50;4.48;;;4.48;;
73154;SDS011;61364;52.418;7.382;2022-08-19T10:45:15;4.37;;;4.37;;
73154;SDS011;61364;52.418;7.382;2022-08-19T10:47:41;4.57;;;4.57;;
73154;SDS011;61364;52.418;7.382;2022-08-19T10:50:07;5.01;;;5.01;;
73154;SDS011;61364;52.418;7.382;2022-08-19T10:52:51;4.62;;;4.62;;
73154;SDS011;61364;52.418;7.382;2022-08-19T10:55:18;4.62;;;4.62;;
73154;SDS011;61364;52.418;7.382;2022-08-19T10:58:03;4.30;;;4.30;;
73154;SDS011;61364;52.418;7.382;2022-08-19T11:00:29;4.89;;;4.89;;
73154;SDS011;61364;52.418;7.382;2022-08-19T11:02:56;4.84;;;4.84;;
73154;SDS011;61364;52.418;7.382;2022-08-19T11:05:22;4.67;;;4.67;;
73154;SDS011;61364;52.418;7.382;2022-08-19T11:07:47;4.46;;;4.46;;
73154;SDS011;61364;52.418;7.382;2022-08-19T11:10:16;4.67;;;4.67;;
73154;SDS011;61364;52.418;7.382;2022-08-19T11:12:44;5.10;;;5.10;;
73154;SDS011;61364;52.418;7.382;2022-08-19T11:15:11;4.96;;;4.96;;
73154;SDS011;61364;52.418;7.382;2022-08-19T11:17:37;4.76;;;4.76;;
73154;SDS011;61364;52.418;7.382;2022-08-19T11:20:06;7.35;;;7.35;;
73154;SDS011;61364;52.418;7.382;2022-08-19T11:22:32;5.87;;;5.87;;
73154;SDS011;61364;52.418;7.382;2022-08-19T11:24:57;4.95;;;4.95;;
73154;SDS011;61364;52.418;7.382;2022-08-19T11:27:23;13.43;;;13.43;;
73154;SDS011;61364;52.418;7.382;2022-08-19T11:29:48;12.21;;;12.21;;
73154;SDS011;61364;52.418;7.382;2022-08-19T11:32:14;8.47;;;8.47;;
73154;SDS011;61364;52.418;7.382;2022-08-19T11:34:40;6.20;;;6.20;;
73154;SDS011;61364;52.418;7.382;2022-08-19T11:37:06;7.87;;;7.87;;
73154;SDS011;61364;52.418;7.382;2022-08-19T11:39:34;5.96;;;5.96;;
73154;SDS011;61364;52.418;7.382;2022-08-19T11:42:02;7.04;;;7.04;;
73154;SDS011;61364;52.418;7.382;2022-08-19T11:44:49;7.71;;;7.71;;
73154;SDS011;61364;52.418;7.382;2022-08-19T11:47:15;8.03;;;8.03;;
73154;SDS011;61364;52.418;7.382;2022-08-19T11:49:40;7.07;;;7.07;;
73154;SDS011;61364;52.418;7.382;2022-08-19T11:52:06;6.61;;;6.61;;
73154;SDS011;61364;52.418;7.382;2022-08-19T11:54:32;6.96;;;6.96;;
73154;SDS011;61364;52.418;7.382;2022-08-19T11:56:58;12.52;;;12.52;;
73154;SDS011;61364;52.418;7.382;2022-08-19T11:59:24;9.47;;;9.47;;
73154;SDS011;61364;52.418;7.382;2022-08-19T12:01:51;8.63;;;8.63;;
73154;SDS011;61364;52.418;7.382;2022-08-19T12:04:17;8.35;;;8.35;;
73154;SDS011;61364;52.418;7.382;2022-08-19T12:06:42;9.20;;;9.20;;
73154;SDS011;61364;52.418;7.382;2022-08-19T12:09:08;11.37;;;11.37;;
73154;SDS011;61364;52.418;7.382;2022-08-19T12:11:34;6.73;;;6.73;;
73154;SDS011;61364;52.418;7.382;2022-08-19T12:14:01;7.93;;;7.93;;
73154;SDS011;61364;52.418;7.382;2022-08-19T12:16:28;10.62;;;10.62;;
73154;SDS011;61364;52.418;7.382;2022-08-19T12:18:55;8.66;;;8.66;;
73154;SDS011;61364;52.418;7.382;2022-08-19T12:21:23;7.65;;;7.65;;
73154;SDS011;61364;52.418;7.382;2022-08-19T12:23:52;8.46;;;8.46;;
73154;SDS011;61364;52.418;7.382;2022-08-19T12:26:17;7.79;;;7.79;;
73154;SDS011;61364;52.418;7.382;2022-08-19T12:28:43;7.86;;;7.86;;
73154;SDS011;61364;52.418;7.382;2022-08-19T12:31:10;7.80;;;7.80;;
73154;SDS011;61364;52.418;7.382;2022-08-19T12:33:39;6.01;;;6.01;;
73154;SDS011;61364;52.418;7.382;2022-08-19T12:36:06;6.31;;;6.31;;
73154;SDS011;61364;52.418;7.382;2022-08-19T12:38:32;6.47;;;6.47;;
73154;SDS011;61364;52.418;7.382;2022-08-19T12:40:59;6.96;;;6.96;;
73154;SDS011;61364;52.418;7.382;2022-08-19T12:43:26;8.19;;;8.19;;
73154;SDS011;61364;52.418;7.382;2022-08-19T12:45:52;7.46;;;7.46;;
73154;SDS011;61364;52.418;7.382;2022-08-19T12:48:17;7.89;;;7.89;;
73154;SDS011;61364;52.418;7.382;2022-08-19T12:50:43;6.73;;;6.73;;
73154;SDS011;61364;52.418;7.382;2022-08-19T12:53:13;7.63;;;7.63;;
73154;SDS011;61364;52.418;7.382;2022-08-19T12:55:39;6.86;;;6.86;;
73154;SDS011;61364;52.418;7.382;2022-08-19T12:58:04;5.99;;;5.99;;
73154;SDS011;61364;52.418;7.382;2022-08-19T13:00:30;6.60;;;6.60;;
73154;SDS011;61364;52.418;7.382;2022-08-19T13:02:58;6.64;;;6.64;;
73154;SDS011;61364;52.418;7.382;2022-08-19T13:05:25;6.89;;;6.89;;
73154;SDS011;61364;52.418;7.382;2022-08-19T13:07:53;7.06;;;7.06;;
73154;SDS011;61364;52.418;7.382;2022-08-19T13:10:23;6.61;;;6.61;;
73154;SDS011;61364;52.418;7.382;2022-08-19T13:12:50;6.48;;;6.48;;
73154;SDS011;61364;52.418;7.382;2022-08-19T13:15:17;6.16;;;6.16;;
73154;SDS011;61364;52.418;7.382;2022-08-19T13:17:46;6.48;;;6.48;;
73154;SDS011;61364;52.418;7.382;2022-08-19T13:20:14;6.61;;;6.61;;
73154;SDS011;61364;52.418;7.382;2022-08-19T13:22:40;6.49;;;6.49;;
73154;SDS011;61364;52.418;7.382;2022-08-19T13:25:06;6.20;;;6.20;;
73154;SDS011;61364;52.418;7.382;2022-08-19T13:27:32;6.35;;;6.35;;
73154;SDS011;61364;52.418;7.382;2022-08-19T13:29:57;6.38;;;6.38;;
73154;SDS011;61364;52.418;7.382;2022-08-19T13:32:41;6.25;;;6.25;;
73154;SDS011;61364;52.418;7.382;2022-08-19T13:35:26;6.26;;;6.26;;
73154;SDS011;61364;52.418;7.382;2022-08-19T13:37:51;6.79;;;6.79;;
73154;SDS011;61364;52.418;7.382;2022-08-19T13:40:19;6.24;;;6.24;;
73154;SDS011;61364;52.418;7.382;2022-08-19T13:42:46;7.06;;;7.06;;
73154;SDS011;61364;52.418;7.382;2022-08-19T13:45:13;7.41;;;7.41;;
73154;SDS011;61364;52.418;7.382;2022-08-19T13:47:40;6.72;;;6.72;;
73154;SDS011;61364;52.418;7.382;2022-08-19T13:50:10;6.91;;;6.91;;
73154;SDS011;61364;52.418;7.382;2022-08-19T13:52:36;6.84;;;6.84;;
73154;SDS011;61364;52.418;7.382;2022-08-19T13:55:02;6.96;;;6.96;;
73154;SDS011;61364;52.418;7.382;2022-08-19T13:57:28;7.36;;;7.36;;
73154;SDS011;61364;52.418;7.382;2022-08-19T13:59:53;6.79;;;6.79;;
73154;SDS011;61364;52.418;7.382;2022-08-19T14:02:19;7.28;;;7.28;;
73154;SDS011;61364;52.418;7.382;2022-08-19T14:04:45;6.79;;;6.79;;
73154;SDS011;61364;52.418;7.382;2022-08-19T14:07:10;7.05;;;7.05;;
73154;SDS011;61364;52.418;7.382;2022-08-19T14:09:36;7.55;;;7.55;;
73154;SDS011;61364;52.418;7.382;2022-08-19T14:12:01;6.97;;;6.97;;
73154;SDS011;61364;52.418;7.382;2022-08-19T14:14:27;6.56;;;6.56;;
73154;SDS011;61364;52.418;7.382;2022-08-19T14:16:52;6.47;;;6.47;;
73154;SDS011;61364;52.418;7.382;2022-08-19T14:19:17;6.66;;;6.66;;
73154;SDS011;61364;52.418;7.382;2022-08-19T14:21:44;6.64;;;6.64;;
73154;SDS011;61364;52.418;7.382;2022-08-19T14:24:09;7.57;;;7.57;;
73154;SDS011;61364;52.418;7.382;2022-08-19T14:26:35;7.55;;;7.55;;
73154;SDS011;61364;52.418;7.382;2022-08-19T14:29:01;7.59;;;7.59;;
73154;SDS011;61364;52.418;7.382;2022-08-19T14:31:26;8.03;;;8.03;;
73154;SDS011;61364;52.418;7.382;2022-08-19T14:33:52;8.02;;;8.02;;
73154;SDS011;61364;52.418;7.382;2022-08-19T14:36:17;7.80;;;7.80;;
73154;SDS011;61364;52.418;7.382;2022-08-19T14:38:43;7.72;;;7.72;;
73154;SDS011;61364;52.418;7.382;2022-08-19T14:41:19;8.12;;;8.12;;
73154;SDS011;61364;52.418;7.382;2022-08-19T14:43:49;7.87;;;7.87;;
73154;SDS011;61364;52.418;7.382;2022-08-19T14:46:16;8.54;;;8.54;;
73154;SDS011;61364;52.418;7.382;2022-08-19T14:48:42;8.29;;;8.29;;